sensor_id;sensor_type;location;lat;lon;timestamp;pressure;altitude;pressure_sealevel;temperature;humidity
38880;BME280;25887;30.194;-97.880;2024-02-21T00:00:06;98916.38;;;26.79;35.39
38880;BME280;25887;30.194;-97.880;2024-02-21T00:02:34;98922.75;;;26.75;35.72
38880;BME280;25887;30.194;-97.880;2024-02-21T00:05:00;98918.69;;;26.69;35.38
38880;BME280;25887;30.194;-97.880;2024-02-21T00:07:26;98927.81;;;26.63;35.98
38880;BME280;25887;30.194;-97.880;2024-02-21T00:09:54;98922.78;;;26.59;36.00
38880;BME280;25887;30.194;-97.880;2024-02-21T00:12:22;98916.06;;;26.53;35.92
38880;BME280;25887;30.194;-97.880;2024-02-21T00:14:48;98917.19;;;26.49;35.79
38880;BME280;25887;30.194;-97.880;2024-02-21T00:17:19;98922.88;;;26.42;35.97
38880;BME280;25887;30.194;-97.880;2024-02-21T00:19:46;98919.53;;;26.38;36.32
38880;BME280;25887;30.194;-97.880;2024-02-21T00:22:14;98925.16;;;26.32;36.20
38880;BME280;25887;30.194;-97.880;2024-02-21T00:24:41;98918.44;;;26.26;36.03
38880;BME280;25887;30.194;-97.880;2024-02-21T00:27:09;98922.25;;;26.21;36.37
38880;BME280;25887;30.194;-97.880;2024-02-21T00:29:35;98924.31;;;26.16;36.27
38880;BME280;25887;30.194;-97.880;2024-02-21T00:32:01;98922.00;;;26.09;36.15
38880;BME280;25887;30.194;-97.880;2024-02-21T00:34:29;98925.81;;;26.04;36.20
38880;BME280;25887;30.194;-97.880;2024-02-21T00:36:55;98927.84;;;25.99;36.14
38880;BME280;25887;30.194;-97.880;2024-02-21T00:39:23;98928.19;;;25.93;36.39
38880;BME280;25887;30.194;-97.880;2024-02-21T00:41:52;98922.41;;;25.86;36.38
38880;BME280;25887;30.194;-97.880;2024-02-21T00:44:19;98930.53;;;25.81;36.36
38880;BME280;25887;30.194;-97.880;2024-02-21T00:46:46;98930.00;;;25.75;36.44
38880;BME280;25887;30.194;-97.880;2024-02-21T00:49:12;98925.19;;;25.66;36.51
38880;BME280;25887;30.194;-97.880;2024-02-21T00:51:39;98924.75;;;25.58;36.71
38880;BME280;25887;30.194;-97.880;2024-02-21T00:54:05;98928.56;;;25.52;36.62
38880;BME280;25887;30.194;-97.880;2024-02-21T00:56:32;98932.38;;;25.46;36.89
38880;BME280;25887;30.194;-97.880;2024-02-21T00:58:59;98925.81;;;25.38;37.09
38880;BME280;25887;30.194;-97.880;2024-02-21T01:01:26;98930.44;;;25.33;36.70
38880;BME280;25887;30.194;-97.880;2024-02-21T01:03:53;98938.63;;;25.26;37.20
38880;BME280;25887;30.194;-97.880;2024-02-21T01:06:20;98925.03;;;25.18;37.05
38880;BME280;25887;30.194;-97.880;2024-02-21T01:08:49;98926.19;;;25.13;37.47
38880;BME280;25887;30.194;-97.880;2024-02-21T01:11:19;98928.34;;;25.05;37.28
38880;BME280;25887;30.194;-97.880;2024-02-21T01:13:48;98934.75;;;24.99;37.50
38880;BME280;25887;30.194;-97.880;2024-02-21T01:16:14;98936.00;;;24.92;37.34
38880;BME280;25887;30.194;-97.880;2024-02-21T01:18:40;98944.16;;;24.86;37.60
38880;BME280;25887;30.194;-97.880;2024-02-21T01:21:07;98941.75;;;24.81;37.71
38880;BME280;25887;30.194;-97.880;2024-02-21T01:23:36;98941.28;;;24.73;37.79
38880;BME280;25887;30.194;-97.880;2024-02-21T01:26:06;98939.88;;;24.66;37.95
38880;BME280;25887;30.194;-97.880;2024-02-21T01:28:34;98941.09;;;24.59;37.85
38880;BME280;25887;30.194;-97.880;2024-02-21T01:31:01;98941.53;;;24.50;37.88
38880;BME280;25887;30.194;-97.880;2024-02-21T01:33:32;98946.31;;;24.41;38.17
38880;BME280;25887;30.194;-97.880;2024-02-21T01:36:04;98955.38;;;24.34;38.42
38880;BME280;25887;30.194;-97.880;2024-02-21T01:38:34;98951.31;;;24.27;38.23
38880;BME280;25887;30.194;-97.880;2024-02-21T01:41:08;98949.03;;;24.19;38.35
38880;BME280;25887;30.194;-97.880;2024-02-21T01:43:34;98954.59;;;24.13;38.44
38880;BME280;25887;30.194;-97.880;2024-02-21T01:46:01;98949.69;;;24.06;38.23
38880;BME280;25887;30.194;-97.880;2024-02-21T01:48:27;98952.69;;;23.98;38.30
38880;BME280;25887;30.194;-97.880;2024-02-21T01:50:56;98953.78;;;23.93;38.77
38880;BME280;25887;30.194;-97.880;2024-02-21T01:53:32;98954.91;;;23.87;38.90
38880;BME280;25887;30.194;-97.880;2024-02-21T01:56:00;98955.34;;;23.78;38.56
38880;BME280;25887;30.194;-97.880;2024-02-21T01:58:28;98957.38;;;23.71;38.85
38880;BME280;25887;30.194;-97.880;2024-02-21T02:00:56;98955.94;;;23.64;38.81
38880;BME280;25887;30.194;-97.880;2024-02-21T02:03:23;98953.59;;;23.56;39.01
38880;BME280;25887;30.194;-97.880;2024-02-21T02:05:52;98955.72;;;23.48;38.91
38880;BME280;25887;30.194;-97.880;2024-02-21T02:08:19;98961.28;;;23.41;39.06
38880;BME280;25887;30.194;-97.880;2024-02-21T02:10:47;98964.16;;;23.34;39.32
38880;BME280;25887;30.194;-97.880;2024-02-21T02:13:15;98961.81;;;23.28;39.66
38880;BME280;25887;30.194;-97.880;2024-02-21T02:15:44;98970.88;;;23.21;39.43
38880;BME280;25887;30.194;-97.880;2024-02-21T02:18:11;98961.56;;;23.14;39.73
38880;BME280;25887;30.194;-97.880;2024-02-21T02:20:38;98971.44;;;23.07;39.78
38880;BME280;25887;30.194;-97.880;2024-02-21T02:23:33;98969.91;;;23.02;39.82
38880;BME280;25887;30.194;-97.880;2024-02-21T02:25:59;98971.22;;;22.92;39.69
38880;BME280;25887;30.194;-97.880;2024-02-21T02:28:29;98967.91;;;22.87;40.23
38880;BME280;25887;30.194;-97.880;2024-02-21T02:30:55;98975.19;;;22.78;40.04
38880;BME280;25887;30.194;-97.880;2024-02-21T02:33:21;98978.94;;;22.73;40.06
38880;BME280;25887;30.194;-97.880;2024-02-21T02:35:47;98975.81;;;22.63;40.38
38880;BME280;25887;30.194;-97.880;2024-02-21T02:38:14;98983.00;;;22.58;40.59
38880;BME280;25887;30.194;-97.880;2024-02-21T02:40:43;98978.94;;;22.51;40.21
38880;BME280;25887;30.194;-97.880;2024-02-21T02:43:11;98979.16;;;22.45;40.74
38880;BME280;25887;30.194;-97.880;2024-02-21T02:45:37;98983.59;;;22.43;40.77
38880;BME280;25887;30.194;-97.880;2024-02-21T02:48:06;98977.69;;;22.38;40.77
38880;BME280;25887;30.194;-97.880;2024-02-21T02:50:33;98977.81;;;22.35;40.93
38880;BME280;25887;30.194;-97.880;2024-02-21T02:52:59;98972.81;;;22.29;41.14
38880;BME280;25887;30.194;-97.880;2024-02-21T02:55:26;98975.50;;;22.25;41.38
38880;BME280;25887;30.194;-97.880;2024-02-21T02:57:55;98972.13;;;22.23;41.11
38880;BME280;25887;30.194;-97.880;2024-02-21T03:00:21;98981.84;;;22.20;41.32
38880;BME280;25887;30.194;-97.880;2024-02-21T03:02:49;98973.25;;;22.16;41.60
38880;BME280;25887;30.194;-97.880;2024-02-21T03:05:19;98980.44;;;22.11;41.38
38880;BME280;25887;30.194;-97.880;2024-02-21T03:07:46;98986.59;;;22.10;41.76
38880;BME280;25887;30.194;-97.880;2024-02-21T03:10:13;98985.78;;;22.08;41.86
38880;BME280;25887;30.194;-97.880;2024-02-21T03:12:42;98988.47;;;22.05;41.89
38880;BME280;25887;30.194;-97.880;2024-02-21T03:15:10;98992.09;;;22.01;42.07
38880;BME280;25887;30.194;-97.880;2024-02-21T03:17:37;98990.53;;;21.97;42.31
38880;BME280;25887;30.194;-97.880;2024-02-21T03:20:06;98994.06;;;21.96;42.36
38880;BME280;25887;30.194;-97.880;2024-02-21T03:22:39;98988.88;;;21.94;42.53
38880;BME280;25887;30.194;-97.880;2024-02-21T03:25:10;98989.81;;;21.92;42.76
38880;BME280;25887;30.194;-97.880;2024-02-21T03:27:38;98989.03;;;21.90;43.01
38880;BME280;25887;30.194;-97.880;2024-02-21T03:30:08;98997.81;;;21.89;43.23
38880;BME280;25887;30.194;-97.880;2024-02-21T03:32:40;98988.19;;;21.89;43.49
38880;BME280;25887;30.194;-97.880;2024-02-21T03:35:06;98990.09;;;21.84;44.05
38880;BME280;25887;30.194;-97.880;2024-02-21T03:37:33;98991.81;;;21.85;44.00
38880;BME280;25887;30.194;-97.880;2024-02-21T03:39:59;99001.41;;;21.85;44.21
38880;BME280;25887;30.194;-97.880;2024-02-21T03:42:26;98989.25;;;21.84;44.53
38880;BME280;25887;30.194;-97.880;2024-02-21T03:44:58;99002.34;;;21.84;44.77
38880;BME280;25887;30.194;-97.880;2024-02-21T03:47:24;99000.63;;;21.83;44.97
38880;BME280;25887;30.194;-97.880;2024-02-21T03:49:50;99010.31;;;21.81;45.03
38880;BME280;25887;30.194;-97.880;2024-02-21T03:52:20;99009.44;;;21.80;45.25
38880;BME280;25887;30.194;-97.880;2024-02-21T03:54:46;99018.22;;;21.79;45.46
38880;BME280;25887;30.194;-97.880;2024-02-21T03:57:12;99015.59;;;21.79;45.53
38880;BME280;25887;30.194;-97.880;2024-02-21T03:59:38;99016.47;;;21.78;45.76
38880;BME280;25887;30.194;-97.880;2024-02-21T04:02:06;99019.16;;;21.77;45.91
38880;BME280;25887;30.194;-97.880;2024-02-21T04:04:35;99008.81;;;21.74;45.91
38880;BME280;25887;30.194;-97.880;2024-02-21T04:07:04;99014.88;;;21.74;46.17
38880;BME280;25887;30.194;-97.880;2024-02-21T04:09:37;99013.25;;;21.72;46.48
38880;BME280;25887;30.194;-97.880;2024-02-21T04:12:05;99017.72;;;21.68;46.78
38880;BME280;25887;30.194;-97.880;2024-02-21T04:14:33;99013.41;;;21.67;47.58
38880;BME280;25887;30.194;-97.880;2024-02-21T04:17:00;99019.59;;;21.64;47.80
38880;BME280;25887;30.194;-97.880;2024-02-21T04:19:26;99022.25;;;21.63;47.80
38880;BME280;25887;30.194;-97.880;2024-02-21T04:21:52;99014.56;;;21.58;48.23
38880;BME280;25887;30.194;-97.880;2024-02-21T04:24:19;99010.31;;;21.56;48.37
38880;BME280;25887;30.194;-97.880;2024-02-21T04:26:46;99023.47;;;21.53;48.60
38880;BME280;25887;30.194;-97.880;2024-02-21T04:29:13;99021.75;;;21.52;48.80
38880;BME280;25887;30.194;-97.880;2024-02-21T04:31:39;99021.88;;;21.49;49.02
38880;BME280;25887;30.194;-97.880;2024-02-21T04:34:06;99023.72;;;21.45;48.89
38880;BME280;25887;30.194;-97.880;2024-02-21T04:37:06;99018.44;;;21.47;49.21
38880;BME280;25887;30.194;-97.880;2024-02-21T04:39:32;99022.13;;;21.41;49.50
38880;BME280;25887;30.194;-97.880;2024-02-21T04:41:58;99019.66;;;21.36;49.54
38880;BME280;25887;30.194;-97.880;2024-02-21T04:44:25;99022.28;;;21.36;49.90
38880;BME280;25887;30.194;-97.880;2024-02-21T04:46:52;99024.94;;;21.35;49.56
38880;BME280;25887;30.194;-97.880;2024-02-21T04:49:18;99019.00;;;21.30;49.84
38880;BME280;25887;30.194;-97.880;2024-02-21T04:51:54;99017.38;;;21.27;49.89
38880;BME280;25887;30.194;-97.880;2024-02-21T04:54:26;99016.53;;;21.25;50.25
38880;BME280;25887;30.194;-97.880;2024-02-21T04:56:55;99023.59;;;21.22;50.19
38880;BME280;25887;30.194;-97.880;2024-02-21T04:59:21;99023.66;;;21.20;50.18
38880;BME280;25887;30.194;-97.880;2024-02-21T05:01:47;99021.16;;;21.17;50.30
38880;BME280;25887;30.194;-97.880;2024-02-21T05:04:13;99027.25;;;21.16;50.43
38880;BME280;25887;30.194;-97.880;2024-02-21T05:06:48;99031.63;;;21.15;50.49
38880;BME280;25887;30.194;-97.880;2024-02-21T05:09:14;99026.63;;;21.09;50.41
38880;BME280;25887;30.194;-97.880;2024-02-21T05:11:41;99031.00;;;21.09;50.55
38880;BME280;25887;30.194;-97.880;2024-02-21T05:14:07;99025.81;;;21.07;50.42
38880;BME280;25887;30.194;-97.880;2024-02-21T05:16:33;99033.75;;;21.04;50.73
38880;BME280;25887;30.194;-97.880;2024-02-21T05:19:00;99030.34;;;21.02;50.66
38880;BME280;25887;30.194;-97.880;2024-02-21T05:21:28;99046.09;;;20.99;50.86
38880;BME280;25887;30.194;-97.880;2024-02-21T05:23:57;99030.53;;;20.96;51.00
38880;BME280;25887;30.194;-97.880;2024-02-21T05:26:24;99034.97;;;20.94;50.93
38880;BME280;25887;30.194;-97.880;2024-02-21T05:28:51;99037.66;;;20.91;51.36
38880;BME280;25887;30.194;-97.880;2024-02-21T05:31:20;99035.19;;;20.86;51.28
38880;BME280;25887;30.194;-97.880;2024-02-21T05:33:47;99038.78;;;20.82;51.39
38880;BME280;25887;30.194;-97.880;2024-02-21T05:36:13;99038.91;;;20.79;51.58
38880;BME280;25887;30.194;-97.880;2024-02-21T05:38:40;99043.28;;;20.77;51.43
38880;BME280;25887;30.194;-97.880;2024-02-21T05:41:06;99037.28;;;20.75;51.24
38880;BME280;25887;30.194;-97.880;2024-02-21T05:43:32;99046.13;;;20.71;51.46
38880;BME280;25887;30.194;-97.880;2024-02-21T05:45:59;99042.69;;;20.69;51.39
38880;BME280;25887;30.194;-97.880;2024-02-21T05:48:25;99041.81;;;20.69;51.70
38880;BME280;25887;30.194;-97.880;2024-02-21T05:50:51;99033.19;;;20.67;51.90
38880;BME280;25887;30.194;-97.880;2024-02-21T05:53:17;99035.06;;;20.62;51.75
38880;BME280;25887;30.194;-97.880;2024-02-21T05:55:44;99033.38;;;20.61;51.77
38880;BME280;25887;30.194;-97.880;2024-02-21T05:58:10;99028.25;;;20.57;51.66
38880;BME280;25887;30.194;-97.880;2024-02-21T06:00:39;99026.63;;;20.53;52.16
38880;BME280;25887;30.194;-97.880;2024-02-21T06:03:05;99027.53;;;20.52;51.98
38880;BME280;25887;30.194;-97.880;2024-02-21T06:05:37;99029.38;;;20.49;52.34
38880;BME280;25887;30.194;-97.880;2024-02-21T06:08:06;99035.53;;;20.46;52.33
38880;BME280;25887;30.194;-97.880;2024-02-21T06:10:32;99036.50;;;20.42;52.32
38880;BME280;25887;30.194;-97.880;2024-02-21T06:12:58;99029.63;;;20.40;52.40
38880;BME280;25887;30.194;-97.880;2024-02-21T06:15:25;99027.94;;;20.37;52.30
38880;BME280;25887;30.194;-97.880;2024-02-21T06:17:51;99027.09;;;20.37;52.41
38880;BME280;25887;30.194;-97.880;2024-02-21T06:20:17;99028.94;;;20.33;52.60
38880;BME280;25887;30.194;-97.880;2024-02-21T06:22:45;99022.94;;;20.29;52.47
38880;BME280;25887;30.194;-97.880;2024-02-21T06:25:11;99024.72;;;20.29;52.64
38880;BME280;25887;30.194;-97.880;2024-02-21T06:27:37;99021.41;;;20.24;52.89
38880;BME280;25887;30.194;-97.880;2024-02-21T06:30:04;99027.47;;;20.23;52.91
38880;BME280;25887;30.194;-97.880;2024-02-21T06:32:30;99025.81;;;20.20;52.89
38880;BME280;25887;30.194;-97.880;2024-02-21T06:34:56;99019.84;;;20.17;52.83
38880;BME280;25887;30.194;-97.880;2024-02-21T06:37:22;99019.06;;;20.13;53.10
38880;BME280;25887;30.194;-97.880;2024-02-21T06:39:49;99020.94;;;20.10;53.04
38880;BME280;25887;30.194;-97.880;2024-02-21T06:42:15;99023.59;;;20.08;53.15
38880;BME280;25887;30.194;-97.880;2024-02-21T06:44:41;99018.44;;;20.05;53.16
38880;BME280;25887;30.194;-97.880;2024-02-21T06:47:09;99022.84;;;20.03;53.11
38880;BME280;25887;30.194;-97.880;2024-02-21T06:49:38;99011.63;;;20.01;53.25
38880;BME280;25887;30.194;-97.880;2024-02-21T06:52:04;99017.75;;;19.98;53.28
38880;BME280;25887;30.194;-97.880;2024-02-21T06:54:33;99012.63;;;19.95;53.36
38880;BME280;25887;30.194;-97.880;2024-02-21T06:57:01;99013.47;;;19.96;53.58
38880;BME280;25887;30.194;-97.880;2024-02-21T06:59:28;99009.22;;;19.92;53.52
38880;BME280;25887;30.194;-97.880;2024-02-21T07:01:54;99006.69;;;19.90;53.71
38880;BME280;25887;30.194;-97.880;2024-02-21T07:04:23;99009.38;;;19.87;53.79
38880;BME280;25887;30.194;-97.880;2024-02-21T07:07:14;99010.13;;;19.91;53.74
38880;BME280;25887;30.194;-97.880;2024-02-21T07:09:41;99005.97;;;19.85;54.01
38880;BME280;25887;30.194;-97.880;2024-02-21T07:12:09;99016.41;;;19.85;53.82
38880;BME280;25887;30.194;-97.880;2024-02-21T07:14:37;99006.84;;;19.84;53.91
38880;BME280;25887;30.194;-97.880;2024-02-21T07:17:03;99011.19;;;19.85;54.15
38880;BME280;25887;30.194;-97.880;2024-02-21T07:19:29;99012.88;;;19.86;54.23
38880;BME280;25887;30.194;-97.880;2024-02-21T07:21:56;99011.19;;;19.85;54.35
38880;BME280;25887;30.194;-97.880;2024-02-21T07:24:23;99004.22;;;19.84;54.23
38880;BME280;25887;30.194;-97.880;2024-02-21T07:26:49;99016.34;;;19.87;54.38
38880;BME280;25887;30.194;-97.880;2024-02-21T07:29:15;98993.81;;;19.84;54.54
38880;BME280;25887;30.194;-97.880;2024-02-21T07:31:42;99002.50;;;19.85;54.59
38880;BME280;25887;30.194;-97.880;2024-02-21T07:34:10;98995.56;;;19.84;54.88
38880;BME280;25887;30.194;-97.880;2024-02-21T07:36:38;98995.56;;;19.84;55.05
38880;BME280;25887;30.194;-97.880;2024-02-21T07:39:05;98997.31;;;19.83;55.27
38880;BME280;25887;30.194;-97.880;2024-02-21T07:41:31;99003.38;;;19.84;55.49
38880;BME280;25887;30.194;-97.880;2024-02-21T07:43:57;99001.63;;;19.84;55.55
38880;BME280;25887;30.194;-97.880;2024-02-21T07:46:24;98997.28;;;19.85;55.49
38880;BME280;25887;30.194;-97.880;2024-02-21T07:48:57;98986.81;;;19.86;55.56
38880;BME280;25887;30.194;-97.880;2024-02-21T07:51:27;98990.31;;;19.85;55.74
38880;BME280;25887;30.194;-97.880;2024-02-21T07:53:54;98989.47;;;19.85;55.57
38880;BME280;25887;30.194;-97.880;2024-02-21T07:56:21;98985.91;;;19.87;55.89
38880;BME280;25887;30.194;-97.880;2024-02-21T07:58:47;98985.06;;;19.87;55.64
38880;BME280;25887;30.194;-97.880;2024-02-21T08:01:21;98982.44;;;19.87;55.91
38880;BME280;25887;30.194;-97.880;2024-02-21T08:03:49;98990.22;;;19.88;56.06
38880;BME280;25887;30.194;-97.880;2024-02-21T08:06:15;98985.00;;;19.88;55.87
38880;BME280;25887;30.194;-97.880;2024-02-21T08:08:43;98987.56;;;19.90;56.20
38880;BME280;25887;30.194;-97.880;2024-02-21T08:11:19;98983.16;;;19.92;56.08
38880;BME280;25887;30.194;-97.880;2024-02-21T08:13:46;98977.13;;;19.90;56.48
38880;BME280;25887;30.194;-97.880;2024-02-21T08:16:12;98972.78;;;19.90;56.38
38880;BME280;25887;30.194;-97.880;2024-02-21T08:18:40;98969.25;;;19.91;56.49
38880;BME280;25887;30.194;-97.880;2024-02-21T08:21:12;98975.34;;;19.92;56.62
38880;BME280;25887;30.194;-97.880;2024-02-21T08:23:39;98971.00;;;19.92;56.46
38880;BME280;25887;30.194;-97.880;2024-02-21T08:26:06;98973.56;;;19.94;56.50
38880;BME280;25887;30.194;-97.880;2024-02-21T08:28:32;98974.41;;;19.94;56.87
38880;BME280;25887;30.194;-97.880;2024-02-21T08:31:00;98979.56;;;19.96;56.93
38880;BME280;25887;30.194;-97.880;2024-02-21T08:33:27;98972.59;;;19.96;56.81
38880;BME280;25887;30.194;-97.880;2024-02-21T08:35:55;98970.00;;;19.96;57.17
38880;BME280;25887;30.194;-97.880;2024-02-21T08:38:24;98969.94;;;19.98;57.07
38880;BME280;25887;30.194;-97.880;2024-02-21T08:40:51;98972.50;;;19.99;56.84
38880;BME280;25887;30.194;-97.880;2024-02-21T08:43:17;98975.09;;;20.01;57.11
38880;BME280;25887;30.194;-97.880;2024-02-21T08:45:44;98959.44;;;20.01;56.98
38880;BME280;25887;30.194;-97.880;2024-02-21T08:48:10;98964.69;;;19.99;57.23
38880;BME280;25887;30.194;-97.880;2024-02-21T08:50:36;98959.41;;;20.02;57.18
38880;BME280;25887;30.194;-97.880;2024-02-21T08:53:04;98953.28;;;20.03;57.43
38880;BME280;25887;30.194;-97.880;2024-02-21T08:55:30;98942.91;;;20.02;57.46
38880;BME280;25887;30.194;-97.880;2024-02-21T08:57:58;98938.56;;;20.01;57.34
38880;BME280;25887;30.194;-97.880;2024-02-21T09:00:25;98942.00;;;20.03;57.54
38880;BME280;25887;30.194;-97.880;2024-02-21T09:02:54;98934.13;;;20.04;57.79
38880;BME280;25887;30.194;-97.880;2024-02-21T09:05:21;98926.34;;;20.03;57.64
38880;BME280;25887;30.194;-97.880;2024-02-21T09:07:47;98934.13;;;20.04;57.88
38880;BME280;25887;30.194;-97.880;2024-02-21T09:10:15;98931.56;;;20.03;58.09
38880;BME280;25887;30.194;-97.880;2024-02-21T09:12:41;98926.34;;;20.03;58.47
38880;BME280;25887;30.194;-97.880;2024-02-21T09:15:08;98925.44;;;20.04;58.47
38880;BME280;25887;30.194;-97.880;2024-02-21T09:17:34;98921.03;;;20.06;58.20
38880;BME280;25887;30.194;-97.880;2024-02-21T09:20:00;98921.13;;;20.03;58.19
38880;BME280;25887;30.194;-97.880;2024-02-21T09:22:29;98921.03;;;20.06;58.25
38880;BME280;25887;30.194;-97.880;2024-02-21T09:24:57;98914.16;;;20.03;58.28
38880;BME280;25887;30.194;-97.880;2024-02-21T09:27:23;98914.16;;;20.03;58.49
38880;BME280;25887;30.194;-97.880;2024-02-21T09:29:50;98912.44;;;20.02;58.91
38880;BME280;25887;30.194;-97.880;2024-02-21T09:32:18;98909.84;;;20.02;58.88
38880;BME280;25887;30.194;-97.880;2024-02-21T09:34:45;98914.25;;;20.00;58.52
38880;BME280;25887;30.194;-97.880;2024-02-21T09:37:12;98914.19;;;20.02;58.95
38880;BME280;25887;30.194;-97.880;2024-02-21T09:39:38;98908.13;;;20.01;59.01
38880;BME280;25887;30.194;-97.880;2024-02-21T09:42:11;98909.06;;;19.99;59.01
38880;BME280;25887;30.194;-97.880;2024-02-21T09:44:37;98909.91;;;19.99;58.95
38880;BME280;25887;30.194;-97.880;2024-02-21T09:47:30;98895.22;;;19.97;58.98
38880;BME280;25887;30.194;-97.880;2024-02-21T09:50:01;98896.06;;;19.97;59.51
38880;BME280;25887;30.194;-97.880;2024-02-21T09:52:30;98900.47;;;19.95;59.66
38880;BME280;25887;30.194;-97.880;2024-02-21T09:54:59;98900.47;;;19.95;59.73
38880;BME280;25887;30.194;-97.880;2024-02-21T09:57:26;98904.91;;;19.92;59.73
38880;BME280;25887;30.194;-97.880;2024-02-21T09:59:55;98906.59;;;19.94;59.62
38880;BME280;25887;30.194;-97.880;2024-02-21T10:02:25;98899.69;;;19.93;59.74
38880;BME280;25887;30.194;-97.880;2024-02-21T10:04:51;98896.97;;;19.96;59.40
38880;BME280;25887;30.194;-97.880;2024-02-21T10:07:17;98891.88;;;19.93;59.73
38880;BME280;25887;30.194;-97.880;2024-02-21T10:13:27;98902.31;;;19.92;59.77
38880;BME280;25887;30.194;-97.880;2024-02-21T10:16:06;98900.59;;;19.92;59.65
38880;BME280;25887;30.194;-97.880;2024-02-21T10:18:35;98903.19;;;19.92;59.67
38880;BME280;25887;30.194;-97.880;2024-02-21T10:21:03;98904.00;;;19.94;59.57
38880;BME280;25887;30.194;-97.880;2024-02-21T10:23:41;98897.06;;;19.93;59.76
38880;BME280;25887;30.194;-97.880;2024-02-21T10:26:08;98904.06;;;19.93;59.60
38880;BME280;25887;30.194;-97.880;2024-02-21T10:28:34;98902.25;;;19.95;59.40
38880;BME280;25887;30.194;-97.880;2024-02-21T10:31:01;98897.06;;;19.93;59.44
38880;BME280;25887;30.194;-97.880;2024-02-21T10:33:28;98895.22;;;19.97;59.43
38880;BME280;25887;30.194;-97.880;2024-02-21T10:36:06;98896.91;;;19.98;59.33
38880;BME280;25887;30.194;-97.880;2024-02-21T10:38:33;98885.63;;;19.97;59.37
38880;BME280;25887;30.194;-97.880;2024-02-21T10:41:00;98897.88;;;19.95;59.46
38880;BME280;25887;30.194;-97.880;2024-02-21T10:43:38;98896.91;;;19.98;59.31
38880;BME280;25887;30.194;-97.880;2024-02-21T10:46:09;98894.38;;;19.96;59.16
38880;BME280;25887;30.194;-97.880;2024-02-21T10:48:44;98904.75;;;19.98;59.21
38880;BME280;25887;30.194;-97.880;2024-02-21T10:51:33;98898.59;;;20.00;59.19
38880;BME280;25887;30.194;-97.880;2024-02-21T10:54:24;98899.59;;;19.96;59.24
38880;BME280;25887;30.194;-97.880;2024-02-21T10:56:58;98904.91;;;19.93;58.94
38880;BME280;25887;30.194;-97.880;2024-02-21T10:59:27;98901.38;;;19.94;59.15
38880;BME280;25887;30.194;-97.880;2024-02-21T11:01:55;98912.63;;;19.96;58.95
38880;BME280;25887;30.194;-97.880;2024-02-21T11:04:21;98903.09;;;19.95;59.11
38880;BME280;25887;30.194;-97.880;2024-02-21T11:06:48;98908.31;;;19.95;59.25
38880;BME280;25887;30.194;-97.880;2024-02-21T11:09:16;98910.13;;;19.93;59.18
38880;BME280;25887;30.194;-97.880;2024-02-21T11:11:44;98913.56;;;19.94;59.27
38880;BME280;25887;30.194;-97.880;2024-02-21T11:14:17;98911.03;;;19.92;59.31
38880;BME280;25887;30.194;-97.880;2024-02-21T11:16:43;98914.44;;;19.94;59.10
38880;BME280;25887;30.194;-97.880;2024-02-21T11:21:45;98921.28;;;19.97;59.05
38880;BME280;25887;30.194;-97.880;2024-02-21T11:24:11;98917.78;;;19.98;58.95
38880;BME280;25887;30.194;-97.880;2024-02-21T11:26:39;98932.53;;;19.99;58.96
38880;BME280;25887;30.194;-97.880;2024-02-21T11:29:05;98932.50;;;20.00;58.97
38880;BME280;25887;30.194;-97.880;2024-02-21T11:31:42;98927.28;;;20.00;59.00
38880;BME280;25887;30.194;-97.880;2024-02-21T11:34:11;98927.28;;;20.00;58.97
38880;BME280;25887;30.194;-97.880;2024-02-21T11:36:52;98929.00;;;20.01;58.99
38880;BME280;25887;30.194;-97.880;2024-02-21T11:39:25;98923.84;;;19.98;59.06
38880;BME280;25887;30.194;-97.880;2024-02-21T11:42:02;98938.56;;;20.01;58.96
38880;BME280;25887;30.194;-97.880;2024-02-21T11:44:37;98932.53;;;19.99;58.83
38880;BME280;25887;30.194;-97.880;2024-02-21T11:47:08;98939.50;;;19.98;59.00
38880;BME280;25887;30.194;-97.880;2024-02-21T11:49:45;98936.00;;;19.99;58.76
38880;BME280;25887;30.194;-97.880;2024-02-21T11:52:12;98937.75;;;19.99;58.92
38880;BME280;25887;30.194;-97.880;2024-02-21T11:54:45;98939.50;;;19.98;58.91
38880;BME280;25887;30.194;-97.880;2024-02-21T11:57:12;98940.34;;;19.99;58.96
38880;BME280;25887;30.194;-97.880;2024-02-21T11:59:40;98939.50;;;19.98;58.54
38880;BME280;25887;30.194;-97.880;2024-02-21T12:02:06;98932.59;;;19.97;58.88
38880;BME280;25887;30.194;-97.880;2024-02-21T12:04:33;98932.59;;;19.97;58.95
38880;BME280;25887;30.194;-97.880;2024-02-21T12:07:00;98936.91;;;19.98;59.23
38880;BME280;25887;30.194;-97.880;2024-02-21T12:09:27;98942.97;;;19.99;58.84
38880;BME280;25887;30.194;-97.880;2024-02-21T12:12:03;98945.56;;;19.99;59.06
38880;BME280;25887;30.194;-97.880;2024-02-21T12:14:31;98944.78;;;19.97;58.87
38880;BME280;25887;30.194;-97.880;2024-02-21T12:16:59;98953.44;;;19.97;58.77
38880;BME280;25887;30.194;-97.880;2024-02-21T12:19:31;98948.22;;;19.97;58.84
38880;BME280;25887;30.194;-97.880;2024-02-21T12:22:00;98940.41;;;19.97;59.08
38880;BME280;25887;30.194;-97.880;2024-02-21T12:24:29;98943.88;;;19.98;58.74
38880;BME280;25887;30.194;-97.880;2024-02-21T12:26:57;98950.78;;;19.99;58.60
38880;BME280;25887;30.194;-97.880;2024-02-21T12:29:24;98946.47;;;19.98;58.71
38880;BME280;25887;30.194;-97.880;2024-02-21T12:31:51;98947.31;;;19.98;58.80
38880;BME280;25887;30.194;-97.880;2024-02-21T12:34:18;98940.47;;;19.96;58.81
38880;BME280;25887;30.194;-97.880;2024-02-21T12:36:45;98949.09;;;19.98;58.57
38880;BME280;25887;30.194;-97.880;2024-02-21T12:39:15;98953.44;;;19.97;58.74
38880;BME280;25887;30.194;-97.880;2024-02-21T12:41:43;98950.78;;;19.99;58.75
38880;BME280;25887;30.194;-97.880;2024-02-21T12:44:13;98953.44;;;19.97;58.56
38880;BME280;25887;30.194;-97.880;2024-02-21T12:46:40;98949.94;;;19.98;58.58
38880;BME280;25887;30.194;-97.880;2024-02-21T12:49:06;98953.44;;;19.97;58.53
38880;BME280;25887;30.194;-97.880;2024-02-21T12:51:37;98957.75;;;19.98;58.55